Time;durP1;ratioP1;P1;durP2;ratioP2;P2;SDS_P1;SDS_P2;PMS_P1;PMS_P2;Temp;Humidity;BMP_temperature;BMP_pressure;BME280_temperature;BME280_humidity;BME280_pressure;Samples;Min_cycle;Max_cycle;Signal;HPM_P1;HPM_P2
2022/01/08 00:01:00;;;;;;;23.92;14.05;;;0.70;99.90;;;;;;4996587;28;20038;-88
2022/01/08 00:03:25;;;;;;;23.70;14.05;;;0.80;99.90;;;;;;4996724;28;20027;-88
2022/01/08 00:05:51;;;;;;;24.88;14.70;;;0.70;99.90;;;;;;4994620;28;20113;-88
2022/01/08 00:08:16;;;;;;;22.50;14.35;;;0.70;99.90;;;;;;4986944;28;20030;-88
2022/01/08 00:10:42;;;;;;;28.35;14.75;;;0.70;99.90;;;;;;5001492;28;20133;-88
2022/01/08 00:13:08;;;;;;;31.98;15.30;;;0.70;99.90;;;;;;4991196;28;20026;-88
2022/01/08 00:15:35;;;;;;;27.85;15.30;;;0.70;99.90;;;;;;4996455;28;20089;-88
2022/01/08 00:18:01;;;;;;;28.00;14.70;;;0.70;99.90;;;;;;4993759;28;20082;-88
2022/01/08 00:20:28;;;;;;;40.20;15.85;;;0.70;99.90;;;;;;4993206;28;20039;-89
2022/01/08 00:22:54;;;;;;;27.05;15.00;;;0.70;99.90;;;;;;4996102;28;20022;-89
2022/01/08 00:25:20;;;;;;;30.35;16.13;;;0.70;99.90;;;;;;4995449;28;20042;-90
2022/01/08 00:27:46;;;;;;;28.42;14.73;;;0.60;99.90;;;;;;4995891;28;20038;-89
2022/01/08 00:30:13;;;;;;;28.15;15.13;;;0.70;99.90;;;;;;4987822;28;20026;-89
2022/01/08 00:32:40;;;;;;;28.13;15.57;;;0.60;99.90;;;;;;4993069;28;20026;-89
2022/01/08 00:35:08;;;;;;;25.25;15.60;;;0.60;99.90;;;;;;4995758;28;20529;-89
2022/01/08 00:37:34;;;;;;;29.58;15.60;;;0.60;99.90;;;;;;4990046;28;20022;-89
2022/01/08 00:40:00;;;;;;;28.30;16.05;;;0.50;99.90;;;;;;4995732;28;20038;-89
2022/01/08 00:42:26;;;;;;;29.90;15.75;;;0.50;99.90;;;;;;4995158;28;20022;-88
2022/01/08 00:44:51;;;;;;;28.33;15.38;;;0.40;99.90;;;;;;4994084;28;20041;-88
2022/01/08 00:47:17;;;;;;;25.65;15.88;;;0.40;99.90;;;;;;4992990;28;20036;-88
2022/01/08 00:49:42;;;;;;;29.17;15.77;;;0.40;99.90;;;;;;4993827;28;20387;-88
2022/01/08 00:52:08;;;;;;;28.58;16.20;;;0.30;99.90;;;;;;4992849;28;20486;-88
2022/01/08 00:54:35;;;;;;;30.00;16.23;;;0.40;99.90;;;;;;4994658;28;20509;-88
2022/01/08 00:57:02;;;;;;;28.08;17.20;;;0.30;99.90;;;;;;4994601;28;20133;-88
2022/01/08 00:59:27;;;;;;;32.05;17.48;;;0.30;99.90;;;;;;4995453;28;20125;-88
2022/01/08 01:01:53;;;;;;;36.35;17.67;;;0.30;99.90;;;;;;4995011;28;20082;-88
2022/01/08 01:04:18;;;;;;;34.08;17.58;;;0.30;99.90;;;;;;4992195;28;20034;-88
2022/01/08 01:06:44;;;;;;;35.80;18.27;;;0.30;99.90;;;;;;4993761;28;20042;-88
2022/01/08 01:09:09;;;;;;;28.02;16.42;;;0.30;99.90;;;;;;4989877;28;20029;-88
2022/01/08 01:11:35;;;;;;;33.97;18.05;;;0.30;99.90;;;;;;4995659;28;20034;-88
2022/01/08 01:14:00;;;;;;;30.88;16.98;;;0.20;99.90;;;;;;4995511;28;20034;-89
2022/01/08 01:16:26;;;;;;;26.10;16.80;;;0.20;99.90;;;;;;4992160;28;20125;-88
2022/01/08 01:18:52;;;;;;;27.83;17.00;;;0.20;99.90;;;;;;4986109;28;20026;-89
2022/01/08 01:21:18;;;;;;;28.02;16.42;;;0.20;99.90;;;;;;4994769;28;20130;-89
2022/01/08 01:23:44;;;;;;;34.33;14.77;;;0.20;99.90;;;;;;4986570;28;20082;-88
2022/01/08 01:26:15;;;;;;;31.13;17.05;;;0.20;99.90;;;;;;4989174;28;20023;-88
2022/01/08 01:28:48;;;;;;;23.95;14.25;;;0.20;99.90;;;;;;4995484;28;20026;-88
2022/01/08 01:42:40;;;;;;;32.75;15.13;;;0.30;99.90;;;;;;4994942;28;20041;-88
2022/01/08 01:47:47;;;;;;;25.42;14.90;;;0.30;99.90;;;;;;4980690;28;20034;-87
2022/01/08 01:50:13;;;;;;;25.95;15.35;;;0.30;99.90;;;;;;4988315;28;20038;-88
2022/01/08 01:52:38;;;;;;;31.27;15.15;;;0.30;99.90;;;;;;4994470;28;20398;-88
2022/01/08 01:55:05;;;;;;;25.95;14.48;;;0.30;99.90;;;;;;4990394;28;20026;-88
2022/01/08 01:57:32;;;;;;;26.13;13.50;;;0.30;99.90;;;;;;4991320;28;20121;-89
2022/01/08 01:59:58;;;;;;;22.42;14.40;;;0.30;99.90;;;;;;4987038;28;20077;-89
2022/01/08 02:02:23;;;;;;;26.63;14.40;;;0.20;99.90;;;;;;4979738;28;20109;-89
2022/01/08 02:04:49;;;;;;;26.08;13.45;;;0.20;99.90;;;;;;4990547;28;20118;-89
2022/01/08 02:07:14;;;;;;;28.17;12.98;;;0.20;99.90;;;;;;4988815;28;20034;-89
2022/01/08 02:09:40;;;;;;;21.02;12.85;;;0.30;99.90;;;;;;4993430;28;20479;-90
2022/01/08 02:12:11;;;;;;;24.08;12.82;;;0.20;99.90;;;;;;4989731;28;20034;-89
2022/01/08 02:14:39;;;;;;;23.83;12.73;;;0.20;99.90;;;;;;4991866;28;20015;-89
2022/01/08 02:17:08;;;;;;;24.48;12.38;;;0.20;99.90;;;;;;4989652;28;20054;-89
2022/01/08 02:19:35;;;;;;;23.50;12.50;;;0.30;99.90;;;;;;4990154;28;20039;-90
2022/01/08 02:22:02;;;;;;;20.90;11.27;;;0.20;99.90;;;;;;4988961;28;20221;-89
2022/01/08 02:24:28;;;;;;;22.40;12.23;;;0.30;99.90;;;;;;4987877;28;20031;-87
2022/01/08 02:26:54;;;;;;;24.80;11.50;;;0.30;99.90;;;;;;4988392;28;20026;-88
2022/01/08 02:29:22;;;;;;;24.95;12.18;;;0.30;99.90;;;;;;4989965;28;20077;-89
2022/01/08 02:32:06;;;;;;;22.70;12.70;;;0.30;99.90;;;;;;4984267;28;20019;-88
2022/01/08 02:34:33;;;;;;;25.48;12.15;;;0.30;99.90;;;;;;4984022;28;20030;-88
2022/01/08 02:37:00;;;;;;;22.65;11.98;;;0.30;99.90;;;;;;4986954;28;20117;-88
2022/01/08 02:39:26;;;;;;;25.35;12.00;;;0.30;99.90;;;;;;4992493;28;20544;-88
2022/01/08 02:41:56;;;;;;;25.70;12.18;;;0.30;99.90;;;;;;4987714;28;20026;-88
2022/01/08 02:44:22;;;;;;;21.90;11.48;;;0.30;99.90;;;;;;4992114;28;20501;-88
2022/01/08 02:46:47;;;;;;;24.92;11.77;;;0.30;99.90;;;;;;4991131;28;20394;-88
2022/01/08 02:49:13;;;;;;;20.27;11.75;;;0.30;99.90;;;;;;5004658;28;20035;-88
2022/01/08 02:51:39;;;;;;;21.92;13.60;;;0.20;99.90;;;;;;4988719;28;20031;-88
2022/01/08 02:54:09;;;;;;;26.73;12.65;;;0.20;99.90;;;;;;4990854;28;20053;-88
2022/01/08 02:56:43;;;;;;;29.38;11.88;;;0.30;99.90;;;;;;4990822;28;20483;-88
2022/01/08 02:59:09;;;;;;;24.65;11.82;;;0.30;99.90;;;;;;4993245;28;20030;-88
2022/01/08 03:01:35;;;;;;;25.13;11.88;;;0.20;99.90;;;;;;4992421;28;20038;-88
2022/01/08 03:04:03;;;;;;;22.00;10.80;;;0.20;99.90;;;;;;4992937;28;20037;-88
2022/01/08 03:06:28;;;;;;;23.02;11.05;;;0.20;99.90;;;;;;4986199;28;20391;-88
2022/01/08 03:08:54;;;;;;;20.73;11.27;;;0.30;99.90;;;;;;4982244;28;20031;-89
2022/01/08 03:11:20;;;;;;;26.42;10.65;;;0.20;99.90;;;;;;4992795;28;20133;-88
2022/01/08 03:13:45;;;;;;;21.65;11.05;;;0.20;99.90;;;;;;4992578;28;20045;-88
2022/01/08 03:16:12;;;;;;;28.33;11.45;;;0.20;99.90;;;;;;4984686;28;20510;-88
2022/01/08 03:18:38;;;;;;;25.10;10.85;;;0.20;99.90;;;;;;4993750;28;20094;-88
2022/01/08 03:21:15;;;;;;;23.20;12.52;;;0.20;99.90;;;;;;4995804;28;20134;-88
2022/01/08 03:23:47;;;;;;;23.85;11.50;;;0.20;99.90;;;;;;4997232;28;20037;-88
2022/01/08 03:26:15;;;;;;;23.20;10.82;;;0.20;99.90;;;;;;4993780;28;20086;-88
2022/01/08 03:28:41;;;;;;;20.70;10.57;;;0.20;99.90;;;;;;4995521;28;20487;-88
2022/01/08 03:31:06;;;;;;;24.73;10.75;;;0.20;99.90;;;;;;4993119;28;20081;-88
2022/01/08 03:33:32;;;;;;;23.92;10.50;;;0.30;99.90;;;;;;4987372;28;20125;-87
2022/01/08 03:35:58;;;;;;;24.40;10.93;;;0.30;99.90;;;;;;4983944;28;20034;-88
2022/01/08 03:38:23;;;;;;;28.52;11.82;;;0.30;99.90;;;;;;4992603;28;20044;-88
2022/01/08 03:40:49;;;;;;;20.30;10.60;;;0.30;99.90;;;;;;4996912;28;20038;-88
2022/01/08 03:43:14;;;;;;;28.85;10.88;;;0.20;99.90;;;;;;4996589;28;20157;-87
2022/01/08 03:45:40;;;;;;;29.88;11.90;;;0.20;99.90;;;;;;4995595;28;20368;-88
2022/01/08 03:50:49;;;;;;;18.10;9.43;;;0.20;99.90;;;;;;4991216;28;20097;-88
2022/01/08 03:53:15;;;;;;;24.52;11.18;;;0.20;99.90;;;;;;4994618;28;20014;-88
2022/01/08 03:55:40;;;;;;;24.95;10.95;;;0.20;99.90;;;;;;5000208;28;20109;-88
2022/01/08 03:58:06;;;;;;;27.02;11.25;;;0.20;99.90;;;;;;4998079;28;20056;-89
2022/01/08 04:00:32;;;;;;;26.85;11.38;;;0.10;99.90;;;;;;4991307;28;20038;-88
2022/01/08 04:02:58;;;;;;;21.83;11.18;;;0.10;99.90;;;;;;4997331;28;20022;-89
2022/01/08 04:05:23;;;;;;;21.90;11.48;;;0.10;99.90;;;;;;4991112;28;20442;-88
2022/01/08 04:07:49;;;;;;;24.20;11.80;;;0.10;99.90;;;;;;4995294;28;20026;-89
2022/01/08 04:10:14;;;;;;;27.80;10.82;;;0.10;99.90;;;;;;4992109;28;20031;-89
2022/01/08 04:12:44;;;;;;;20.60;12.07;;;0.00;99.90;;;;;;4993001;28;20023;-88
2022/01/08 04:17:52;;;;;;;20.80;11.05;;;0.00;99.90;;;;;;5008323;28;20070;-88
2022/01/08 04:20:19;;;;;;;29.70;12.60;;;-0.10;99.90;;;;;;4984564;28;20042;-89
2022/01/08 04:22:47;;;;;;;27.40;12.32;;;-0.10;99.90;;;;;;4990141;28;20085;-88
2022/01/08 04:25:17;;;;;;;26.13;12.55;;;-0.10;99.90;;;;;;4992515;28;20061;-88
2022/01/08 04:27:43;;;;;;;27.00;12.48;;;-0.10;99.90;;;;;;4991232;28;20109;-88
2022/01/08 04:30:09;;;;;;;31.23;13.75;;;-0.20;99.90;;;;;;4992636;28;20112;-89
2022/01/08 04:32:35;;;;;;;27.92;12.65;;;-0.30;99.90;;;;;;4991315;28;20018;-88
2022/01/08 04:35:00;;;;;;;29.08;13.27;;;-0.20;99.90;;;;;;4996187;28;20030;-88
2022/01/08 04:37:26;;;;;;;29.80;12.45;;;-0.30;99.90;;;;;;4996146;28;20112;-89
2022/01/08 04:39:52;;;;;;;30.92;13.27;;;-0.30;99.90;;;;;;4990677;28;20132;-88
2022/01/08 04:42:17;;;;;;;36.80;13.52;;;-0.30;99.90;;;;;;4999219;28;20045;-89
2022/01/08 04:44:43;;;;;;;32.50;13.00;;;-0.30;99.90;;;;;;4989634;28;20049;-89
2022/01/08 04:47:08;;;;;;;25.45;13.45;;;-0.30;99.90;;;;;;4983974;28;20109;-88
2022/01/08 04:49:34;;;;;;;30.80;14.38;;;-0.40;99.90;;;;;;4997543;28;20026;-88
2022/01/08 04:51:59;;;;;;;30.65;13.80;;;-0.40;99.90;;;;;;4996778;28;20026;-89
2022/01/08 04:54:25;;;;;;;27.05;13.18;;;-0.40;99.90;;;;;;4996721;28;20054;-89
2022/01/08 04:56:50;;;;;;;23.98;12.48;;;-0.40;99.90;;;;;;4998250;28;20034;-89
2022/01/08 04:59:17;;;;;;;26.92;12.48;;;-0.40;99.90;;;;;;4993048;28;20018;-89
2022/01/08 05:01:43;;;;;;;27.73;11.85;;;-0.40;99.90;;;;;;5006588;28;20118;-88
2022/01/08 05:04:09;;;;;;;30.52;13.70;;;-0.40;99.90;;;;;;4995146;28;20049;-89
2022/01/08 05:06:34;;;;;;;24.60;12.50;;;-0.40;99.90;;;;;;4990672;28;20029;-89
2022/01/08 05:09:00;;;;;;;31.40;13.55;;;-0.40;99.90;;;;;;4997307;28;20026;-89
2022/01/08 05:11:27;;;;;;;23.35;12.93;;;-0.40;99.90;;;;;;5015479;28;20041;-89
2022/01/08 05:13:53;;;;;;;27.77;13.38;;;-0.30;99.90;;;;;;4991148;28;20391;-89
2022/01/08 05:16:19;;;;;;;39.90;15.18;;;-0.30;99.90;;;;;;4995267;28;20046;-89
2022/01/08 05:18:45;;;;;;;27.83;13.27;;;-0.40;99.90;;;;;;4989223;28;20077;-89
2022/01/08 05:21:29;;;;;;;33.42;13.57;;;-0.30;99.90;;;;;;4981031;28;20046;-89
2022/01/08 05:23:57;;;;;;;31.17;14.00;;;-0.30;99.90;;;;;;5000972;28;21507;-89
2022/01/08 05:26:25;;;;;;;26.88;13.32;;;-0.30;99.90;;;;;;4994166;28;20116;-88
2022/01/08 05:28:54;;;;;;;39.13;15.15;;;-0.30;99.90;;;;;;4991524;28;20403;-90
2022/01/08 05:31:22;;;;;;;32.42;14.23;;;-0.30;99.90;;;;;;4997612;28;20034;-89
2022/01/08 05:33:49;;;;;;;30.38;13.43;;;-0.30;99.90;;;;;;4988576;28;20022;-89
2022/01/08 05:36:15;;;;;;;30.60;13.55;;;-0.30;99.90;;;;;;4997480;28;20022;-89
2022/01/08 05:38:40;;;;;;;27.90;13.73;;;-0.20;99.90;;;;;;4997194;28;20085;-89
2022/01/08 05:41:07;;;;;;;28.10;13.93;;;-0.10;99.90;;;;;;4994816;28;20406;-88
2022/01/08 05:43:33;;;;;;;28.25;14.60;;;-0.10;99.90;;;;;;4997299;28;20025;-89
2022/01/08 05:45:58;;;;;;;33.22;13.45;;;-0.10;99.90;;;;;;4991525;28;20033;-89
2022/01/08 05:48:25;;;;;;;33.70;15.45;;;-0.10;99.90;;;;;;4991185;28;20564;-89
2022/01/08 05:50:51;;;;;;;31.27;14.25;;;0.00;99.90;;;;;;4994040;28;20116;-89
2022/01/08 05:53:18;;;;;;;32.42;14.35;;;0.00;99.90;;;;;;4997041;28;20025;-89
2022/01/08 05:55:44;;;;;;;26.83;14.35;;;0.00;99.90;;;;;;4997698;28;20025;-90
2022/01/08 05:58:09;;;;;;;31.30;13.93;;;0.00;99.90;;;;;;4994031;28;20385;-89
2022/01/08 06:00:35;;;;;;;33.88;15.52;;;0.00;99.90;;;;;;4995295;28;20490;-90
2022/01/08 06:03:00;;;;;;;27.27;13.63;;;0.00;99.90;;;;;;4997150;28;20053;-90
2022/01/08 06:05:26;;;;;;;27.63;14.15;;;0.00;99.90;;;;;;4997237;28;20069;-89
2022/01/08 06:07:52;;;;;;;33.28;16.00;;;0.00;99.90;;;;;;5010148;28;20038;-89
2022/01/08 06:10:18;;;;;;;29.15;14.05;;;0.00;99.90;;;;;;4993795;28;20038;-89
2022/01/08 06:12:44;;;;;;;24.77;13.05;;;0.00;99.90;;;;;;4990448;28;20027;-89
2022/01/08 06:15:10;;;;;;;28.80;13.85;;;0.00;99.90;;;;;;4997556;28;20033;-89
2022/01/08 06:17:35;;;;;;;33.50;13.65;;;0.00;99.90;;;;;;4996578;28;20049;-89
2022/01/08 06:20:01;;;;;;;31.90;14.60;;;0.00;99.90;;;;;;4991693;28;20156;-90
2022/01/08 06:22:27;;;;;;;33.45;15.50;;;0.10;99.90;;;;;;4994576;28;20053;-89
2022/01/08 06:24:52;;;;;;;33.90;14.90;;;0.00;99.90;;;;;;4994181;28;20034;-89
2022/01/08 06:27:19;;;;;;;29.75;15.10;;;0.00;99.90;;;;;;4983697;28;20100;-89
2022/01/08 06:29:44;;;;;;;35.90;16.33;;;0.00;99.90;;;;;;4993678;28;20467;-89
2022/01/08 06:32:10;;;;;;;31.95;15.45;;;0.00;99.90;;;;;;4996144;28;20022;-89
2022/01/08 06:34:35;;;;;;;36.22;15.55;;;0.00;99.90;;;;;;5001562;28;20050;-90
2022/01/08 06:37:01;;;;;;;28.48;15.52;;;0.10;99.90;;;;;;4995059;28;20042;-89
2022/01/08 06:39:26;;;;;;;30.70;17.63;;;0.10;99.90;;;;;;4991020;28;20026;-89
2022/01/08 06:41:52;;;;;;;30.23;16.52;;;0.10;99.90;;;;;;4990973;28;20455;-89
2022/01/08 06:44:17;;;;;;;31.17;15.85;;;0.10;99.90;;;;;;4993720;28;20141;-89
2022/01/08 06:46:43;;;;;;;35.67;17.13;;;0.20;99.90;;;;;;4996779;28;20061;-89
2022/01/08 06:49:09;;;;;;;33.03;16.98;;;0.20;99.90;;;;;;4997738;28;20045;-90
2022/01/08 06:51:34;;;;;;;38.40;18.45;;;0.20;99.90;;;;;;4990733;28;20029;-90
2022/01/08 06:54:00;;;;;;;33.17;17.15;;;0.20;99.90;;;;;;4995338;28;20042;-90
2022/01/08 06:56:26;;;;;;;38.22;18.15;;;0.30;99.90;;;;;;5000725;28;20116;-90
2022/01/08 06:58:51;;;;;;;31.83;17.83;;;0.30;99.90;;;;;;4999926;28;20479;-90
2022/01/08 07:01:17;;;;;;;39.35;18.48;;;0.30;99.90;;;;;;4992941;28;20034;-89
2022/01/08 07:03:42;;;;;;;37.00;18.17;;;0.30;99.90;;;;;;4996423;28;20402;-90
2022/01/08 07:06:08;;;;;;;30.30;17.13;;;0.40;99.90;;;;;;4994357;28;20037;-90
2022/01/08 07:08:33;;;;;;;33.83;17.40;;;0.40;99.90;;;;;;4997226;28;20029;-90
2022/01/08 07:10:59;;;;;;;26.83;17.58;;;0.40;99.90;;;;;;4990774;28;20045;-90
2022/01/08 07:13:24;;;;;;;41.88;19.23;;;0.40;99.90;;;;;;4994779;28;20055;-90
2022/01/08 07:15:50;;;;;;;33.15;18.05;;;0.40;99.90;;;;;;4990394;28;20063;-89
2022/01/08 07:18:15;;;;;;;37.83;19.05;;;0.40;99.90;;;;;;4990035;28;20050;-90
2022/01/08 07:20:41;;;;;;;35.45;16.52;;;0.40;99.90;;;;;;4994100;28;20379;-89
2022/01/08 07:23:06;;;;;;;35.30;19.00;;;0.40;99.90;;;;;;4991736;28;20026;-90
2022/01/08 07:25:32;;;;;;;34.10;18.42;;;0.40;99.90;;;;;;4987211;28;20621;-90
2022/01/08 07:27:58;;;;;;;41.60;18.98;;;0.40;99.90;;;;;;4987677;28;20128;-90
2022/01/08 07:30:23;;;;;;;31.05;18.13;;;0.40;99.90;;;;;;5004580;28;20046;-89
2022/01/08 07:32:51;;;;;;;41.45;19.27;;;0.50;99.90;;;;;;4992631;28;20100;-89
2022/01/08 07:35:21;;;;;;;35.50;18.98;;;0.50;99.90;;;;;;4990048;28;20022;-89
2022/01/08 07:37:47;;;;;;;34.42;19.35;;;0.50;99.90;;;;;;4994549;28;20030;-90
2022/01/08 07:40:14;;;;;;;37.35;19.90;;;0.60;99.90;;;;;;4994583;28;20084;-89
2022/01/08 07:42:39;;;;;;;38.40;19.38;;;0.60;99.90;;;;;;4994351;28;20029;-89
2022/01/08 07:45:07;;;;;;;31.95;19.25;;;0.60;99.90;;;;;;4995869;28;20105;-89
2022/01/08 07:47:32;;;;;;;32.92;18.75;;;0.60;99.90;;;;;;4993644;28;20528;-89
2022/01/08 07:49:58;;;;;;;34.28;20.02;;;0.70;99.90;;;;;;5006205;28;20034;-90
2022/01/08 07:52:23;;;;;;;31.50;19.30;;;0.70;99.90;;;;;;4993437;28;20474;-91
2022/01/08 07:54:49;;;;;;;37.40;19.92;;;0.70;99.90;;;;;;4997133;28;20026;-90
2022/01/08 07:57:14;;;;;;;32.63;18.27;;;0.70;99.90;;;;;;4986892;28;20031;-90
2022/01/08 07:59:42;;;;;;;38.13;18.88;;;0.70;99.90;;;;;;4998117;28;20034;-90
2022/01/08 08:02:08;;;;;;;31.85;18.15;;;0.70;99.90;;;;;;4995861;28;20046;-90
2022/01/08 08:04:34;;;;;;;38.03;18.95;;;0.80;99.90;;;;;;4997838;28;20030;-90
2022/01/08 08:06:59;;;;;;;32.30;19.17;;;0.80;99.90;;;;;;4997426;28;20485;-90
2022/01/08 08:09:25;;;;;;;31.50;19.20;;;0.80;99.90;;;;;;4992435;28;20022;-91
2022/01/08 08:11:50;;;;;;;33.55;18.40;;;0.80;99.90;;;;;;4994955;28;20022;-91
2022/01/08 08:14:16;;;;;;;36.75;20.02;;;0.80;99.90;;;;;;4995238;28;20089;-91
2022/01/08 08:16:42;;;;;;;38.03;19.15;;;0.90;99.90;;;;;;4986591;28;20536;-90
2022/01/08 08:19:07;;;;;;;37.72;18.90;;;0.90;99.90;;;;;;4995131;28;20037;-91
2022/01/08 08:21:33;;;;;;;39.53;20.05;;;0.90;99.90;;;;;;4995309;28;20030;-90
2022/01/08 08:24:00;;;;;;;31.25;19.00;;;1.00;99.90;;;;;;4996811;28;20061;-90
2022/01/08 08:26:25;;;;;;;32.05;19.10;;;1.00;99.90;;;;;;4999098;28;20017;-91
2022/01/08 08:28:51;;;;;;;29.15;17.58;;;1.00;99.90;;;;;;4998585;28;20033;-92
2022/01/08 08:31:16;;;;;;;35.53;19.58;;;1.10;99.90;;;;;;4996396;28;20502;-91
2022/01/08 08:33:42;;;;;;;38.58;19.67;;;1.10;99.90;;;;;;4997439;28;20030;-90
2022/01/08 08:36:08;;;;;;;30.65;17.38;;;1.10;99.90;;;;;;4993114;28;20042;-90
2022/01/08 08:38:33;;;;;;;29.75;16.83;;;1.10;99.90;;;;;;4993606;28;20049;-89
2022/01/08 08:40:59;;;;;;;29.15;17.23;;;1.20;99.90;;;;;;4990279;28;20133;-90
2022/01/08 08:43:24;;;;;;;31.25;17.60;;;1.10;99.90;;;;;;4987658;28;20455;-90
2022/01/08 08:45:50;;;;;;;38.70;17.77;;;1.20;99.90;;;;;;4997273;28;20120;-90
2022/01/08 08:48:17;;;;;;;34.63;16.30;;;1.20;99.90;;;;;;4990583;28;20018;-92
2022/01/08 08:50:44;;;;;;;30.77;16.92;;;1.20;99.90;;;;;;4996041;28;20062;-90
2022/01/08 08:53:10;;;;;;;30.23;16.17;;;1.20;99.90;;;;;;4984966;28;20080;-90
2022/01/08 08:55:36;;;;;;;35.00;16.98;;;1.20;99.90;;;;;;4987253;28;20037;-89
2022/01/08 08:58:02;;;;;;;34.05;16.98;;;1.20;99.90;;;;;;4990342;28;20116;-89
2022/01/08 09:00:28;;;;;;;31.38;16.45;;;1.20;99.90;;;;;;5002745;28;20104;-90
2022/01/08 09:02:53;;;;;;;32.65;15.60;;;1.30;99.90;;;;;;4993174;28;20028;-90
2022/01/08 09:05:19;;;;;;;35.42;15.60;;;1.20;99.90;;;;;;4987287;28;20030;-89
2022/01/08 09:07:44;;;;;;;32.50;16.48;;;1.30;99.90;;;;;;4993471;28;20041;-90
2022/01/08 09:10:11;;;;;;;36.17;16.08;;;1.30;99.90;;;;;;4990578;28;20026;-90
2022/01/08 09:12:38;;;;;;;29.20;15.55;;;1.30;99.90;;;;;;4991372;28;20528;-90
2022/01/08 09:15:06;;;;;;;35.58;14.52;;;1.30;99.90;;;;;;4990063;28;20040;-91
2022/01/08 09:17:32;;;;;;;27.73;14.60;;;1.30;99.90;;;;;;4992304;28;20030;-91
2022/01/08 09:19:58;;;;;;;31.00;15.05;;;1.30;99.90;;;;;;4993275;28;20701;-91
2022/01/08 09:22:23;;;;;;;26.55;13.02;;;1.30;99.90;;;;;;4991080;28;20062;-91
2022/01/08 09:24:50;;;;;;;29.90;14.20;;;1.40;99.90;;;;;;4989245;28;20030;-91
2022/01/08 09:27:15;;;;;;;30.42;14.25;;;1.40;99.90;;;;;;4990132;28;20022;-90
2022/01/08 09:29:41;;;;;;;32.05;13.90;;;1.40;99.90;;;;;;4993665;28;20117;-90
2022/01/08 09:32:08;;;;;;;33.72;14.80;;;1.40;99.90;;;;;;4996267;28;20366;-89
2022/01/08 09:34:34;;;;;;;30.05;15.18;;;1.50;99.90;;;;;;4989600;28;20048;-92
2022/01/08 09:36:59;;;;;;;29.30;14.13;;;1.50;99.90;;;;;;4998771;28;20124;-92
2022/01/08 09:39:25;;;;;;;35.58;16.10;;;1.50;99.90;;;;;;4996518;28;20113;-91
2022/01/08 09:41:52;;;;;;;32.05;14.27;;;1.60;99.90;;;;;;4998853;28;20034;-91
2022/01/08 09:44:17;;;;;;;30.20;15.10;;;1.60;99.90;;;;;;4997237;28;20093;-91
2022/01/08 09:46:43;;;;;;;31.92;15.30;;;1.60;99.90;;;;;;4995604;28;20120;-91
2022/01/08 09:49:09;;;;;;;36.88;16.45;;;1.70;99.90;;;;;;4995052;28;20030;-90
2022/01/08 09:51:35;;;;;;;37.00;16.45;;;1.70;99.90;;;;;;4998045;28;20069;-91
2022/01/08 09:54:02;;;;;;;35.00;16.92;;;1.80;99.90;;;;;;4998707;28;20034;-90
2022/01/08 09:56:31;;;;;;;33.95;17.10;;;1.80;99.90;;;;;;5014631;28;20425;-90
2022/01/08 09:58:57;;;;;;;36.28;17.08;;;1.80;99.90;;;;;;4994861;28;20026;-91
2022/01/08 10:01:34;;;;;;;33.95;17.40;;;1.90;99.90;;;;;;4995035;28;20045;-90
2022/01/08 10:04:02;;;;;;;37.03;16.00;;;1.90;99.90;;;;;;4997600;28;20026;-90
2022/01/08 10:06:31;;;;;;;38.55;17.13;;;2.00;99.90;;;;;;4995755;28;20022;-90
2022/01/08 10:08:57;;;;;;;37.00;17.30;;;2.00;99.90;;;;;;4994594;28;20088;-89
2022/01/08 10:11:24;;;;;;;41.00;16.85;;;2.10;99.90;;;;;;4988950;28;20030;-91
2022/01/08 10:14:00;;;;;;;31.67;15.57;;;2.10;99.90;;;;;;4989954;28;20030;-91
2022/01/08 10:19:24;;;;;;;37.55;17.38;;;2.20;99.90;;;;;;5007631;28;20045;-89
2022/01/08 10:21:54;;;;;;;34.80;16.92;;;2.20;99.90;;;;;;4990624;28;20041;-89
2022/01/08 10:24:28;;;;;;;33.97;17.73;;;2.20;99.90;;;;;;5011592;28;20023;-90
2022/01/08 10:27:03;;;;;;;40.08;17.33;;;2.30;99.90;;;;;;5003835;28;20033;-90
2022/01/08 10:29:29;;;;;;;36.30;16.33;;;2.30;99.90;;;;;;5001896;28;20049;-90
2022/01/08 10:31:55;;;;;;;38.85;17.20;;;2.30;99.90;;;;;;4997934;28;20036;-90
2022/01/08 10:34:24;;;;;;;34.45;16.90;;;2.40;99.90;;;;;;4993161;28;20018;-90
2022/01/08 10:36:56;;;;;;;41.65;17.63;;;2.40;99.90;;;;;;4994461;28;20054;-89
2022/01/08 10:39:33;;;;;;;35.10;16.67;;;2.40;99.90;;;;;;4989819;28;20399;-89
2022/01/08 10:42:01;;;;;;;35.30;16.30;;;2.40;99.90;;;;;;4996661;28;20049;-90
2022/01/08 10:44:31;;;;;;;35.28;18.52;;;2.50;99.90;;;;;;4992256;28;20386;-90
2022/01/08 10:47:03;;;;;;;35.88;18.77;;;2.50;99.90;;;;;;4973191;28;20030;-89
2022/01/08 10:49:43;;;;;;;35.88;19.02;;;2.50;99.90;;;;;;4982718;28;20022;-90
2022/01/08 10:52:14;;;;;;;32.53;16.25;;;2.50;99.90;;;;;;4991738;28;20034;-90
2022/01/08 10:54:42;;;;;;;41.25;17.88;;;2.60;99.90;;;;;;4982384;28;20121;-90
2022/01/08 10:57:09;;;;;;;42.80;18.13;;;2.60;99.90;;;;;;4987548;28;20453;-90
2022/01/08 10:59:36;;;;;;;33.78;17.05;;;2.70;99.90;;;;;;4992306;28;20026;-90
2022/01/08 11:02:06;;;;;;;44.05;17.98;;;2.70;99.90;;;;;;4996582;28;20438;-89
2022/01/08 11:04:36;;;;;;;35.83;18.17;;;2.80;99.90;;;;;;4993911;28;20053;-89
2022/01/08 11:07:08;;;;;;;36.30;17.40;;;2.80;99.90;;;;;;4995793;28;20201;-87
2022/01/08 11:09:36;;;;;;;40.03;18.77;;;2.80;99.90;;;;;;4989378;28;20109;-90
2022/01/08 11:12:03;;;;;;;41.75;18.38;;;2.80;99.90;;;;;;4994825;28;20034;-90
2022/01/08 11:17:31;;;;;;;42.83;18.05;;;3.00;99.90;;;;;;4966227;28;20099;-91
2022/01/08 11:20:25;;;;;;;41.58;19.85;;;3.10;99.90;;;;;;4995513;28;20088;-89
2022/01/08 11:22:56;;;;;;;37.10;17.92;;;3.10;99.90;;;;;;5006736;28;20057;-91
2022/01/08 11:25:26;;;;;;;39.20;18.55;;;3.20;99.90;;;;;;4995387;28;20037;-90
2022/01/08 11:28:14;;;;;;;37.05;16.95;;;3.20;99.90;;;;;;4997268;28;20405;-90
2022/01/08 11:30:52;;;;;;;39.67;17.25;;;3.30;99.90;;;;;;5003772;28;20022;-89
2022/01/08 11:33:30;;;;;;;33.90;16.77;;;3.30;99.90;;;;;;4998995;28;20025;-89
2022/01/08 11:35:58;;;;;;;33.78;16.13;;;3.40;99.90;;;;;;4992173;28;20445;-88
2022/01/08 11:38:26;;;;;;;33.50;16.63;;;3.40;99.90;;;;;;4995209;28;20022;-89
2022/01/08 11:40:53;;;;;;;31.77;15.57;;;3.40;99.90;;;;;;4998956;28;20034;-88
2022/01/08 11:43:21;;;;;;;33.55;14.90;;;3.50;99.90;;;;;;4998339;28;20041;-88
2022/01/08 11:45:55;;;;;;;35.83;17.02;;;3.60;99.90;;;;;;4999046;28;20115;-88
2022/01/08 11:48:30;;;;;;;36.17;16.05;;;3.60;99.90;;;;;;5000492;28;20482;-88
2022/01/08 11:50:59;;;;;;;32.88;16.08;;;3.60;99.90;;;;;;4997353;28;20037;-88
2022/01/08 11:53:27;;;;;;;29.88;15.10;;;3.60;99.90;;;;;;4997277;28;20038;-88
2022/01/08 11:56:03;;;;;;;29.25;14.23;;;3.70;99.90;;;;;;4999754;28;20061;-87
2022/01/08 11:58:30;;;;;;;30.42;15.43;;;3.70;99.90;;;;;;5000363;28;20076;-89
2022/01/08 12:00:58;;;;;;;25.00;13.40;;;3.70;99.90;;;;;;4999376;28;20069;-88
2022/01/08 12:03:40;;;;;;;34.50;15.25;;;3.80;99.90;;;;;;4999325;28;20080;-88
2022/01/08 12:06:27;;;;;;;28.02;13.68;;;3.90;99.90;;;;;;4999463;28;20025;-88
2022/01/08 12:09:08;;;;;;;30.65;12.95;;;3.90;99.90;;;;;;4996788;28;20098;-87
2022/01/08 12:11:50;;;;;;;25.25;12.55;;;4.00;99.90;;;;;;5003624;28;20019;-86
2022/01/08 12:14:23;;;;;;;26.67;12.95;;;3.90;99.90;;;;;;4997435;28;20038;-88
2022/01/08 12:17:20;;;;;;;23.55;12.00;;;4.00;99.90;;;;;;4994879;28;20053;-88
2022/01/08 12:19:55;;;;;;;26.90;11.57;;;3.90;99.90;;;;;;4990372;28;20096;-90
2022/01/08 12:22:21;;;;;;;22.33;10.77;;;4.00;99.90;;;;;;4988856;28;20035;-89
2022/01/08 12:24:52;;;;;;;25.63;11.75;;;3.90;99.90;;;;;;4989336;28;20122;-89
2022/01/08 12:27:38;;;;;;;22.67;9.98;;;3.90;99.90;;;;;;4994034;28;20510;-87
2022/01/08 12:30:15;;;;;;;22.38;9.32;;;3.90;99.90;;;;;;4992626;28;20026;-89
2022/01/08 12:32:46;;;;;;;24.52;11.13;;;3.80;99.90;;;;;;4992036;28;20118;-89
2022/01/08 12:35:16;;;;;;;22.40;10.88;;;3.80;99.90;;;;;;4993451;28;20158;-89
2022/01/08 12:37:44;;;;;;;23.05;9.98;;;3.80;99.90;;;;;;4994484;28;20115;-88
2022/01/08 12:40:32;;;;;;;20.50;9.55;;;3.80;99.90;;;;;;4993755;28;20045;-93
2022/01/08 12:42:58;;;;;;;19.67;9.95;;;3.80;99.90;;;;;;5003188;28;20112;-89
2022/01/08 12:45:32;;;;;;;19.42;8.55;;;3.80;99.90;;;;;;4992303;28;20073;-88
2022/01/08 12:48:04;;;;;;;18.73;8.82;;;3.80;99.90;;;;;;4989175;28;20426;-89
2022/01/08 12:50:55;;;;;;;18.45;8.95;;;3.80;99.90;;;;;;4992689;28;20046;-91
2022/01/08 12:53:29;;;;;;;19.67;7.72;;;3.70;99.90;;;;;;4991287;28;20031;-89
2022/01/08 12:55:55;;;;;;;13.73;6.80;;;3.80;99.90;;;;;;4996358;28;20479;-90
2022/01/08 12:58:30;;;;;;;20.95;7.15;;;3.80;99.90;;;;;;4998057;28;20034;-89
2022/01/08 13:01:16;;;;;;;15.23;6.15;;;3.80;99.90;;;;;;4993815;28;20050;-88
2022/01/08 13:03:56;;;;;;;12.45;6.05;;;3.80;99.90;;;;;;4994958;28;20030;-89